sensor_id;sensor_type;location;lat;lon;timestamp;pressure;altitude;pressure_sealevel;temperature;humidity
64095;BME280;50353;51.420;5.682;2022-08-03T00:01:15;101285.91;;;21.71;72.74
64095;BME280;50353;51.420;5.682;2022-08-03T00:03:40;101292.22;;;21.61;72.81
64095;BME280;50353;51.420;5.682;2022-08-03T00:06:06;101284.81;;;21.64;72.98
64095;BME280;50353;51.420;5.682;2022-08-03T00:08:31;101288.38;;;21.64;72.48
64095;BME280;50353;51.420;5.682;2022-08-03T00:10:56;101291.50;;;21.59;72.43
64095;BME280;50353;51.420;5.682;2022-08-03T00:13:22;101287.00;;;21.60;72.61
64095;BME280;50353;51.420;5.682;2022-08-03T00:15:47;101287.06;;;21.68;72.62
64095;BME280;50353;51.420;5.682;2022-08-03T00:18:12;101283.44;;;21.59;72.71
64095;BME280;50353;51.420;5.682;2022-08-03T00:20:37;101291.63;;;21.40;73.58
64095;BME280;50353;51.420;5.682;2022-08-03T00:23:03;101290.16;;;21.27;74.50
64095;BME280;50353;51.420;5.682;2022-08-03T00:25:28;101281.31;;;21.17;73.57
64095;BME280;50353;51.420;5.682;2022-08-03T00:27:54;101287.41;;;21.37;73.04
64095;BME280;50353;51.420;5.682;2022-08-03T00:30:19;101285.03;;;21.52;73.33
64095;BME280;50353;51.420;5.682;2022-08-03T00:32:44;101285.38;;;21.21;74.75
64095;BME280;50353;51.420;5.682;2022-08-03T00:35:10;101284.53;;;21.03;74.79
64095;BME280;50353;51.420;5.682;2022-08-03T00:37:36;101282.09;;;21.27;74.27
64095;BME280;50353;51.420;5.682;2022-08-03T00:40:01;101278.94;;;20.86;74.19
64095;BME280;50353;51.420;5.682;2022-08-03T00:42:26;101286.06;;;21.05;72.93
64095;BME280;50353;51.420;5.682;2022-08-03T00:44:51;101281.41;;;21.25;71.87
64095;BME280;50353;51.420;5.682;2022-08-03T00:47:17;101281.31;;;21.17;72.84
64095;BME280;50353;51.420;5.682;2022-08-03T00:49:42;101279.00;;;21.04;73.10
64095;BME280;50353;51.420;5.682;2022-08-03T00:52:08;101280.94;;;21.12;73.27
64095;BME280;50353;51.420;5.682;2022-08-03T00:54:35;101275.66;;;20.92;74.83
64095;BME280;50353;51.420;5.682;2022-08-03T00:57:01;101274.19;;;20.98;73.50
64095;BME280;50353;51.420;5.682;2022-08-03T00:59:26;101275.66;;;20.92;73.11
64095;BME280;50353;51.420;5.682;2022-08-03T01:01:53;101273.06;;;21.01;73.09
64095;BME280;50353;51.420;5.682;2022-08-03T01:04:18;101279.81;;;21.05;73.07
64095;BME280;50353;51.420;5.682;2022-08-03T01:07:19;101276.06;;;20.98;73.97
64095;BME280;50353;51.420;5.682;2022-08-03T01:10:00;101264.41;;;20.79;74.43
64095;BME280;50353;51.420;5.682;2022-08-03T01:12:28;101271.78;;;20.77;74.23
64095;BME280;50353;51.420;5.682;2022-08-03T01:15:13;101261.03;;;20.77;74.17
64095;BME280;50353;51.420;5.682;2022-08-03T01:20:21;101265.38;;;20.88;74.35
64095;BME280;50353;51.420;5.682;2022-08-03T01:26:02;101254.41;;;20.71;75.39
64095;BME280;50353;51.420;5.682;2022-08-03T01:31:20;101262.81;;;20.49;75.29
64095;BME280;50353;51.420;5.682;2022-08-03T01:33:52;101255.63;;;20.49;75.63
64095;BME280;50353;51.420;5.682;2022-08-03T01:36:25;101263.63;;;20.59;75.23
64095;BME280;50353;51.420;5.682;2022-08-03T01:38:55;101258.44;;;20.85;74.18
64095;BME280;50353;51.420;5.682;2022-08-03T01:41:32;101261.00;;;20.49;74.65
64095;BME280;50353;51.420;5.682;2022-08-03T01:44:00;101259.59;;;20.45;74.62
64095;BME280;50353;51.420;5.682;2022-08-03T01:46:27;101258.00;;;20.52;74.67
64095;BME280;50353;51.420;5.682;2022-08-03T01:48:54;101251.41;;;20.37;74.79
64095;BME280;50353;51.420;5.682;2022-08-03T01:51:21;101254.47;;;20.52;75.21
64095;BME280;50353;51.420;5.682;2022-08-03T01:53:47;101250.97;;;20.41;74.64
64095;BME280;50353;51.420;5.682;2022-08-03T01:56:15;101246.97;;;20.55;74.61
64095;BME280;50353;51.420;5.682;2022-08-03T01:58:42;101245.91;;;20.29;74.85
64095;BME280;50353;51.420;5.682;2022-08-03T02:01:09;101246.16;;;20.45;74.01
64095;BME280;50353;51.420;5.682;2022-08-03T02:03:39;101238.50;;;20.50;74.41
64095;BME280;50353;51.420;5.682;2022-08-03T02:06:09;101246.63;;;20.31;74.93
64095;BME280;50353;51.420;5.682;2022-08-03T02:08:35;101249.13;;;20.42;74.01
64095;BME280;50353;51.420;5.682;2022-08-03T02:11:01;101250.66;;;20.44;74.50
64095;BME280;50353;51.420;5.682;2022-08-03T02:13:27;101255.31;;;20.52;74.30
64095;BME280;50353;51.420;5.682;2022-08-03T02:15:54;101249.78;;;20.54;74.94
64095;BME280;50353;51.420;5.682;2022-08-03T02:18:21;101252.69;;;20.42;74.53
64095;BME280;50353;51.420;5.682;2022-08-03T02:20:47;101246.91;;;20.37;74.95
64095;BME280;50353;51.420;5.682;2022-08-03T02:23:14;101250.88;;;20.33;75.82
64095;BME280;50353;51.420;5.682;2022-08-03T02:25:42;101241.94;;;20.42;74.93
64095;BME280;50353;51.420;5.682;2022-08-03T02:28:17;101250.47;;;20.18;77.02
64095;BME280;50353;51.420;5.682;2022-08-03T02:30:46;101248.91;;;20.25;75.72
64095;BME280;50353;51.420;5.682;2022-08-03T02:33:18;101249.63;;;20.18;77.08
64095;BME280;50353;51.420;5.682;2022-08-03T02:35:44;101253.91;;;20.01;76.43
64095;BME280;50353;51.420;5.682;2022-08-03T02:38:12;101256.94;;;20.25;74.59
64095;BME280;50353;51.420;5.682;2022-08-03T02:40:41;101240.53;;;20.29;74.78
64095;BME280;50353;51.420;5.682;2022-08-03T02:43:10;101240.03;;;20.15;75.55
64095;BME280;50353;51.420;5.682;2022-08-03T02:45:41;101228.78;;;20.02;76.55
64095;BME280;50353;51.420;5.682;2022-08-03T02:48:08;101246.44;;;20.04;77.72
64095;BME280;50353;51.420;5.682;2022-08-03T02:50:35;101241.75;;;20.06;75.58
64095;BME280;50353;51.420;5.682;2022-08-03T02:53:02;101232.19;;;19.84;77.57
64095;BME280;50353;51.420;5.682;2022-08-03T02:55:28;101232.56;;;20.09;76.80
64095;BME280;50353;51.420;5.682;2022-08-03T02:57:55;101232.25;;;20.12;76.32
64095;BME280;50353;51.420;5.682;2022-08-03T03:00:22;101232.56;;;20.09;76.58
64095;BME280;50353;51.420;5.682;2022-08-03T03:02:48;101231.84;;;20.17;76.89
64095;BME280;50353;51.420;5.682;2022-08-03T03:05:15;101234.25;;;20.10;76.78
64095;BME280;50353;51.420;5.682;2022-08-03T03:07:41;101235.19;;;20.29;75.95
64095;BME280;50353;51.420;5.682;2022-08-03T03:10:08;101231.09;;;20.24;75.87
64095;BME280;50353;51.420;5.682;2022-08-03T03:12:35;101238.72;;;20.29;76.18
64095;BME280;50353;51.420;5.682;2022-08-03T03:15:01;101229.00;;;20.18;76.39
64095;BME280;50353;51.420;5.682;2022-08-03T03:17:26;101234.53;;;20.17;76.39
64095;BME280;50353;51.420;5.682;2022-08-03T03:19:52;101223.63;;;20.18;76.12
64095;BME280;50353;51.420;5.682;2022-08-03T03:22:20;101234.41;;;19.99;76.37
64095;BME280;50353;51.420;5.682;2022-08-03T03:24:46;101234.56;;;19.97;76.99
64095;BME280;50353;51.420;5.682;2022-08-03T03:27:13;101231.16;;;20.05;76.40
64095;BME280;50353;51.420;5.682;2022-08-03T03:29:39;101227.22;;;19.99;78.11
64095;BME280;50353;51.420;5.682;2022-08-03T03:32:05;101229.56;;;20.12;77.80
64095;BME280;50353;51.420;5.682;2022-08-03T03:34:30;101231.59;;;20.00;77.41
64095;BME280;50353;51.420;5.682;2022-08-03T03:36:56;101232.75;;;19.98;77.77
64095;BME280;50353;51.420;5.682;2022-08-03T03:39:22;101228.22;;;19.88;78.31
64095;BME280;50353;51.420;5.682;2022-08-03T03:41:47;101229.34;;;19.56;78.90
64095;BME280;50353;51.420;5.682;2022-08-03T03:44:13;101230.19;;;19.86;77.68
64095;BME280;50353;51.420;5.682;2022-08-03T03:46:38;101229.06;;;19.79;78.43
64095;BME280;50353;51.420;5.682;2022-08-03T03:49:05;101232.03;;;19.86;78.03
64095;BME280;50353;51.420;5.682;2022-08-03T03:51:31;101224.94;;;19.95;77.65
64095;BME280;50353;51.420;5.682;2022-08-03T03:53:58;101235.16;;;19.81;78.30
64095;BME280;50353;51.420;5.682;2022-08-03T03:56:24;101231.47;;;19.82;78.10
64095;BME280;50353;51.420;5.682;2022-08-03T03:58:49;101228.66;;;19.64;78.98
64095;BME280;50353;51.420;5.682;2022-08-03T04:01:15;101231.22;;;19.85;77.33
64095;BME280;50353;51.420;5.682;2022-08-03T04:03:40;101231.91;;;19.68;78.88
64095;BME280;50353;51.420;5.682;2022-08-03T04:06:05;101232.88;;;19.86;77.98
64095;BME280;50353;51.420;5.682;2022-08-03T04:08:49;101229.06;;;19.79;78.10
64095;BME280;50353;51.420;5.682;2022-08-03T04:11:49;101228.78;;;19.63;78.95
64095;BME280;50353;51.420;5.682;2022-08-03T04:14:18;101228.34;;;19.67;78.75
64095;BME280;50353;51.420;5.682;2022-08-03T04:16:50;101232.19;;;19.45;79.78
64095;BME280;50353;51.420;5.682;2022-08-03T04:19:23;101222.03;;;19.49;79.81
64095;BME280;50353;51.420;5.682;2022-08-03T04:21:54;101236.56;;;19.56;80.05
64095;BME280;50353;51.420;5.682;2022-08-03T04:24:22;101226.13;;;19.43;79.70
64095;BME280;50353;51.420;5.682;2022-08-03T04:26:50;101234.84;;;19.45;79.79
64095;BME280;50353;51.420;5.682;2022-08-03T04:29:16;101235.16;;;19.42;80.02
64095;BME280;50353;51.420;5.682;2022-08-03T04:31:44;101224.13;;;19.55;79.32
64095;BME280;50353;51.420;5.682;2022-08-03T04:34:10;101229.34;;;19.56;79.31
64095;BME280;50353;51.420;5.682;2022-08-03T04:36:41;101224.56;;;19.31;79.81
64095;BME280;50353;51.420;5.682;2022-08-03T04:39:25;101231.34;;;19.54;79.72
64095;BME280;50353;51.420;5.682;2022-08-03T04:41:57;101233.59;;;19.39;80.50
64095;BME280;50353;51.420;5.682;2022-08-03T04:44:24;101229.63;;;19.53;80.63
64095;BME280;50353;51.420;5.682;2022-08-03T04:46:51;101239.09;;;19.48;80.94
64095;BME280;50353;51.420;5.682;2022-08-03T04:49:19;101234.72;;;19.37;81.80
64095;BME280;50353;51.420;5.682;2022-08-03T04:51:44;101241.09;;;19.55;80.88
64095;BME280;50353;51.420;5.682;2022-08-03T04:54:13;101243.63;;;19.57;81.18
64095;BME280;50353;51.420;5.682;2022-08-03T04:56:40;101243.19;;;19.52;81.49
64095;BME280;50353;51.420;5.682;2022-08-03T04:59:06;101236.81;;;19.72;80.71
64095;BME280;50353;51.420;5.682;2022-08-03T05:01:32;101249.38;;;19.52;82.38
64095;BME280;50353;51.420;5.682;2022-08-03T05:03:57;101249.84;;;19.87;81.13
64095;BME280;50353;51.420;5.682;2022-08-03T05:06:22;101253.91;;;19.71;82.16
64095;BME280;50353;51.420;5.682;2022-08-03T05:08:48;101249.66;;;19.59;82.74
64095;BME280;50353;51.420;5.682;2022-08-03T05:11:15;101249.41;;;19.72;82.53
64095;BME280;50353;51.420;5.682;2022-08-03T05:13:40;101246.03;;;19.89;82.63
64095;BME280;50353;51.420;5.682;2022-08-03T05:16:06;101262.69;;;20.03;82.62
64095;BME280;50353;51.420;5.682;2022-08-03T05:18:31;101254.16;;;20.17;82.37
64095;BME280;50353;51.420;5.682;2022-08-03T05:20:56;101259.09;;;20.12;82.46
64095;BME280;50353;51.420;5.682;2022-08-03T05:23:21;101256.78;;;20.37;82.16
64095;BME280;50353;51.420;5.682;2022-08-03T05:25:47;101253.69;;;20.32;83.29
64095;BME280;50353;51.420;5.682;2022-08-03T05:28:12;101262.50;;;20.52;81.84
64095;BME280;50353;51.420;5.682;2022-08-03T05:30:37;101265.69;;;20.75;80.30
64095;BME280;50353;51.420;5.682;2022-08-03T05:33:03;101265.28;;;20.80;80.10
64095;BME280;50353;51.420;5.682;2022-08-03T05:35:29;101263.91;;;20.93;79.84
64095;BME280;50353;51.420;5.682;2022-08-03T05:37:54;101264.19;;;21.18;79.00
64095;BME280;50353;51.420;5.682;2022-08-03T05:40:20;101271.41;;;21.18;78.81
64095;BME280;50353;51.420;5.682;2022-08-03T05:42:45;101267.34;;;21.14;80.03
64095;BME280;50353;51.420;5.682;2022-08-03T05:45:11;101273.72;;;21.31;78.86
64095;BME280;50353;51.420;5.682;2022-08-03T05:47:45;101267.75;;;21.73;76.84
64095;BME280;50353;51.420;5.682;2022-08-03T05:50:11;101265.53;;;21.86;75.18
64095;BME280;50353;51.420;5.682;2022-08-03T05:52:38;101272.97;;;21.92;74.59
64095;BME280;50353;51.420;5.682;2022-08-03T05:55:08;101260.84;;;21.88;74.98
64095;BME280;50353;51.420;5.682;2022-08-03T05:57:34;101264.63;;;22.30;71.79
64095;BME280;50353;51.420;5.682;2022-08-03T06:00:05;101265.41;;;22.40;71.12
64095;BME280;50353;51.420;5.682;2022-08-03T06:02:31;101269.03;;;22.05;72.87
64095;BME280;50353;51.420;5.682;2022-08-03T06:04:57;101266.56;;;22.38;72.68
64095;BME280;50353;51.420;5.682;2022-08-03T06:07:22;101265.06;;;22.17;73.40
64095;BME280;50353;51.420;5.682;2022-08-03T06:09:47;101278.28;;;22.55;71.90
64095;BME280;50353;51.420;5.682;2022-08-03T06:12:13;101276.19;;;22.75;70.56
64095;BME280;50353;51.420;5.682;2022-08-03T06:14:38;101271.72;;;22.92;68.84
64095;BME280;50353;51.420;5.682;2022-08-03T06:17:03;101272.47;;;23.19;68.20
64095;BME280;50353;51.420;5.682;2022-08-03T06:19:28;101278.41;;;23.31;66.23
64095;BME280;50353;51.420;5.682;2022-08-03T06:21:54;101280.78;;;23.50;67.43
64095;BME280;50353;51.420;5.682;2022-08-03T06:24:19;101277.63;;;23.71;66.05
64095;BME280;50353;51.420;5.682;2022-08-03T06:26:44;101274.75;;;23.81;65.66
64095;BME280;50353;51.420;5.682;2022-08-03T06:29:10;101279.81;;;23.92;64.80
64095;BME280;50353;51.420;5.682;2022-08-03T06:31:35;101271.34;;;23.79;65.28
64095;BME280;50353;51.420;5.682;2022-08-03T06:34:03;101278.16;;;24.00;64.89
64095;BME280;50353;51.420;5.682;2022-08-03T06:36:28;101276.81;;;24.04;64.01
64095;BME280;50353;51.420;5.682;2022-08-03T06:38:56;101274.22;;;24.27;63.50
64095;BME280;50353;51.420;5.682;2022-08-03T06:41:21;101273.34;;;24.35;64.27
64095;BME280;50353;51.420;5.682;2022-08-03T06:43:47;101283.00;;;24.85;60.02
64095;BME280;50353;51.420;5.682;2022-08-03T06:46:12;101275.06;;;24.84;59.39
64095;BME280;50353;51.420;5.682;2022-08-03T06:48:37;101292.06;;;25.01;59.81
64095;BME280;50353;51.420;5.682;2022-08-03T06:51:03;101281.50;;;25.14;60.46
64095;BME280;50353;51.420;5.682;2022-08-03T06:53:28;101284.59;;;25.03;59.95
64095;BME280;50353;51.420;5.682;2022-08-03T06:55:53;101282.97;;;24.93;59.94
64095;BME280;50353;51.420;5.682;2022-08-03T06:58:18;101287.28;;;25.11;59.21
64095;BME280;50353;51.420;5.682;2022-08-03T07:00:44;101287.59;;;25.47;57.36
64095;BME280;50353;51.420;5.682;2022-08-03T07:03:09;101284.78;;;25.33;58.63
64095;BME280;50353;51.420;5.682;2022-08-03T07:05:34;101288.97;;;25.43;58.42
64095;BME280;50353;51.420;5.682;2022-08-03T07:08:00;101288.66;;;25.61;56.81
64095;BME280;50353;51.420;5.682;2022-08-03T07:10:27;101289.84;;;25.36;57.99
64095;BME280;50353;51.420;5.682;2022-08-03T07:12:52;101289.53;;;25.39;59.49
64095;BME280;50353;51.420;5.682;2022-08-03T07:15:18;101297.47;;;25.63;56.78
64095;BME280;50353;51.420;5.682;2022-08-03T07:17:44;101303.34;;;25.67;57.53
64095;BME280;50353;51.420;5.682;2022-08-03T07:20:10;101301.56;;;25.59;57.52
64095;BME280;50353;51.420;5.682;2022-08-03T07:22:35;101311.00;;;25.87;56.35
64095;BME280;50353;51.420;5.682;2022-08-03T07:25:01;101299.28;;;25.86;56.23
64095;BME280;50353;51.420;5.682;2022-08-03T07:27:27;101308.84;;;25.97;56.93
64095;BME280;50353;51.420;5.682;2022-08-03T07:29:53;101309.59;;;25.91;56.22
64095;BME280;50353;51.420;5.682;2022-08-03T07:32:19;101312.75;;;26.18;55.42
64095;BME280;50353;51.420;5.682;2022-08-03T07:34:44;101320.28;;;26.45;55.31
64095;BME280;50353;51.420;5.682;2022-08-03T07:37:10;101309.63;;;26.44;55.11
64095;BME280;50353;51.420;5.682;2022-08-03T07:39:35;101306.28;;;26.72;54.87
64095;BME280;50353;51.420;5.682;2022-08-03T07:42:01;101310.81;;;27.16;53.58
64095;BME280;50353;51.420;5.682;2022-08-03T07:44:26;101307.63;;;27.12;52.28
64095;BME280;50353;51.420;5.682;2022-08-03T07:46:51;101306.38;;;27.30;52.13
64095;BME280;50353;51.420;5.682;2022-08-03T07:49:16;101307.13;;;27.24;52.17
64095;BME280;50353;51.420;5.682;2022-08-03T07:51:42;101306.28;;;27.38;52.54
64095;BME280;50353;51.420;5.682;2022-08-03T07:54:07;101306.72;;;27.42;51.16
64095;BME280;50353;51.420;5.682;2022-08-03T07:56:34;101304.41;;;27.39;52.33
64095;BME280;50353;51.420;5.682;2022-08-03T07:58:59;101303.13;;;27.56;52.44
64095;BME280;50353;51.420;5.682;2022-08-03T08:01:26;101314.47;;;27.88;50.50
64095;BME280;50353;51.420;5.682;2022-08-03T08:03:51;101303.56;;;28.03;51.46
64095;BME280;50353;51.420;5.682;2022-08-03T08:06:16;101304.94;;;27.71;51.23
64095;BME280;50353;51.420;5.682;2022-08-03T08:08:42;101306.19;;;27.31;52.53
64095;BME280;50353;51.420;5.682;2022-08-03T08:11:08;101305.03;;;27.84;51.51
64095;BME280;50353;51.420;5.682;2022-08-03T08:13:33;101299.09;;;28.17;51.84
64095;BME280;50353;51.420;5.682;2022-08-03T08:15:59;101301.41;;;27.98;51.37
64095;BME280;50353;51.420;5.682;2022-08-03T08:18:25;101296.31;;;28.39;50.29
64095;BME280;50353;51.420;5.682;2022-08-03T08:20:50;101292.94;;;28.37;50.48
64095;BME280;50353;51.420;5.682;2022-08-03T08:23:16;101295.16;;;28.61;50.16
64095;BME280;50353;51.420;5.682;2022-08-03T08:25:48;101302.56;;;28.67;50.19
64095;BME280;50353;51.420;5.682;2022-08-03T08:28:16;101306.25;;;28.60;48.55
64095;BME280;50353;51.420;5.682;2022-08-03T08:30:41;101297.97;;;28.75;49.65
64095;BME280;50353;51.420;5.682;2022-08-03T08:33:06;101299.91;;;28.88;48.70
64095;BME280;50353;51.420;5.682;2022-08-03T08:35:31;101298.25;;;28.87;47.20
64095;BME280;50353;51.420;5.682;2022-08-03T08:37:59;101289.34;;;28.64;47.39
64095;BME280;50353;51.420;5.682;2022-08-03T08:40:26;101293.38;;;28.12;48.16
64095;BME280;50353;51.420;5.682;2022-08-03T08:42:51;101302.63;;;28.46;48.96
64095;BME280;50353;51.420;5.682;2022-08-03T08:45:16;101302.91;;;29.06;46.97
64095;BME280;50353;51.420;5.682;2022-08-03T08:47:45;101304.22;;;29.17;46.31
64095;BME280;50353;51.420;5.682;2022-08-03T08:50:11;101302.66;;;29.56;46.55
64095;BME280;50353;51.420;5.682;2022-08-03T08:52:39;101306.19;;;29.43;45.96
64095;BME280;50353;51.420;5.682;2022-08-03T08:55:07;101302.66;;;29.76;45.22
64095;BME280;50353;51.420;5.682;2022-08-03T08:57:35;101300.41;;;29.93;44.14
64095;BME280;50353;51.420;5.682;2022-08-03T09:00:04;101298.28;;;30.02;45.37
64095;BME280;50353;51.420;5.682;2022-08-03T09:02:30;101301.00;;;30.09;44.68
64095;BME280;50353;51.420;5.682;2022-08-03T09:04:56;101297.84;;;30.45;43.40
64095;BME280;50353;51.420;5.682;2022-08-03T09:07:22;101296.34;;;30.56;43.76
64095;BME280;50353;51.420;5.682;2022-08-03T09:09:47;101294.03;;;30.60;41.70
64095;BME280;50353;51.420;5.682;2022-08-03T09:12:12;101294.25;;;30.38;42.87
64095;BME280;50353;51.420;5.682;2022-08-03T09:14:38;101294.56;;;30.82;42.46
64095;BME280;50353;51.420;5.682;2022-08-03T09:17:03;101298.88;;;31.10;40.96
64095;BME280;50353;51.420;5.682;2022-08-03T09:19:30;101287.94;;;31.10;41.82
64095;BME280;50353;51.420;5.682;2022-08-03T09:22:13;101287.97;;;31.03;40.34
64095;BME280;50353;51.420;5.682;2022-08-03T09:25:00;101294.88;;;31.12;42.37
64095;BME280;50353;51.420;5.682;2022-08-03T09:27:25;101299.94;;;31.09;40.88
64095;BME280;50353;51.420;5.682;2022-08-03T09:29:51;101287.66;;;31.25;41.49
64095;BME280;50353;51.420;5.682;2022-08-03T09:32:20;101289.81;;;31.48;40.83
64095;BME280;50353;51.420;5.682;2022-08-03T09:34:47;101291.34;;;30.98;39.94
64095;BME280;50353;51.420;5.682;2022-08-03T09:37:15;101298.25;;;31.14;39.50
64095;BME280;50353;51.420;5.682;2022-08-03T09:39:40;101293.81;;;31.45;39.60
64095;BME280;50353;51.420;5.682;2022-08-03T09:42:07;101287.78;;;31.05;39.98
64095;BME280;50353;51.420;5.682;2022-08-03T09:44:34;101293.44;;;31.99;38.36
64095;BME280;50353;51.420;5.682;2022-08-03T09:47:00;101294.78;;;31.90;39.81
64095;BME280;50353;51.420;5.682;2022-08-03T09:49:25;101302.09;;;32.21;39.72
64095;BME280;50353;51.420;5.682;2022-08-03T09:51:50;101295.56;;;32.41;38.65
64095;BME280;50353;51.420;5.682;2022-08-03T09:54:29;101297.53;;;32.08;40.80
64095;BME280;50353;51.420;5.682;2022-08-03T09:56:55;101295.75;;;32.64;39.56
64095;BME280;50353;51.420;5.682;2022-08-03T09:59:29;101291.41;;;32.57;39.10
64095;BME280;50353;51.420;5.682;2022-08-03T10:01:56;101296.66;;;32.40;36.71
64095;BME280;50353;51.420;5.682;2022-08-03T10:04:22;101293.31;;;32.38;38.78
64095;BME280;50353;51.420;5.682;2022-08-03T10:07:21;101297.78;;;32.32;36.79
64095;BME280;50353;51.420;5.682;2022-08-03T10:10:00;101289.28;;;32.77;35.83
64095;BME280;50353;51.420;5.682;2022-08-03T10:12:27;101295.19;;;32.93;35.30
64095;BME280;50353;51.420;5.682;2022-08-03T10:14:53;101286.69;;;32.82;37.47
64095;BME280;50353;51.420;5.682;2022-08-03T10:17:20;101288.19;;;32.97;35.77
64095;BME280;50353;51.420;5.682;2022-08-03T10:19:46;101285.03;;;32.81;36.78
64095;BME280;50353;51.420;5.682;2022-08-03T10:22:18;101274.59;;;33.20;36.27
64095;BME280;50353;51.420;5.682;2022-08-03T10:25:03;101283.09;;;33.00;35.75
64095;BME280;50353;51.420;5.682;2022-08-03T10:27:39;101277.41;;;33.32;37.33
64095;BME280;50353;51.420;5.682;2022-08-03T10:30:10;101285.53;;;33.51;37.07
64095;BME280;50353;51.420;5.682;2022-08-03T10:33:30;101288.47;;;33.80;36.61
64095;BME280;50353;51.420;5.682;2022-08-03T10:35:55;101281.38;;;33.60;35.48
64095;BME280;50353;51.420;5.682;2022-08-03T10:38:28;101270.44;;;32.99;37.21
64095;BME280;50353;51.420;5.682;2022-08-03T10:40:53;101278.16;;;33.51;36.02
64095;BME280;50353;51.420;5.682;2022-08-03T10:43:20;101267.00;;;34.00;36.60
64095;BME280;50353;51.420;5.682;2022-08-03T10:45:47;101268.69;;;34.01;35.11
64095;BME280;50353;51.420;5.682;2022-08-03T10:48:14;101262.09;;;34.26;35.50
64095;BME280;50353;51.420;5.682;2022-08-03T10:50:40;101263.56;;;34.05;35.69
64095;BME280;50353;51.420;5.682;2022-08-03T10:53:07;101263.09;;;34.32;36.82
64095;BME280;50353;51.420;5.682;2022-08-03T11:01:09;101251.97;;;34.39;35.25
64095;BME280;50353;51.420;5.682;2022-08-03T11:06:23;101249.00;;;34.04;33.77
64095;BME280;50353;51.420;5.682;2022-08-03T11:11:41;101243.81;;;34.56;35.67
64095;BME280;50353;51.420;5.682;2022-08-03T11:16:37;101236.88;;;34.65;31.21
64095;BME280;50353;51.420;5.682;2022-08-03T11:19:05;101239.44;;;34.83;35.62
64095;BME280;50353;51.420;5.682;2022-08-03T11:27:20;101234.38;;;34.92;33.28
64095;BME280;50353;51.420;5.682;2022-08-03T11:29:59;101232.63;;;34.86;32.80
64095;BME280;50353;51.420;5.682;2022-08-03T11:37:31;101236.97;;;35.45;37.98
64095;BME280;50353;51.420;5.682;2022-08-03T11:39:56;101237.06;;;35.67;31.99
64095;BME280;50353;51.420;5.682;2022-08-03T11:44:58;101220.56;;;35.04;33.21
64095;BME280;50353;51.420;5.682;2022-08-03T11:47:26;101221.47;;;34.64;34.20
64095;BME280;50353;51.420;5.682;2022-08-03T11:49:54;101217.59;;;35.23;34.61
64095;BME280;50353;51.420;5.682;2022-08-03T11:52:22;101230.06;;;35.59;33.08
64095;BME280;50353;51.420;5.682;2022-08-03T11:54:50;101224.63;;;36.20;30.93
64095;BME280;50353;51.420;5.682;2022-08-03T11:59:54;101235.38;;;35.66;32.05
64095;BME280;50353;51.420;5.682;2022-08-03T12:02:19;101232.06;;;35.47;33.80
64095;BME280;50353;51.420;5.682;2022-08-03T12:04:58;101223.88;;;35.18;33.76
64095;BME280;50353;51.420;5.682;2022-08-03T12:07:27;101226.50;;;35.30;33.00
64095;BME280;50353;51.420;5.682;2022-08-03T12:12:31;101225.19;;;36.00;34.47
64095;BME280;50353;51.420;5.682;2022-08-03T12:14:56;101227.06;;;36.17;32.50
64095;BME280;50353;51.420;5.682;2022-08-03T12:17:22;101233.97;;;35.46;33.37
64095;BME280;50353;51.420;5.682;2022-08-03T12:19:48;101228.19;;;35.82;33.37
64095;BME280;50353;51.420;5.682;2022-08-03T12:22:13;101228.13;;;36.33;32.61
64095;BME280;50353;51.420;5.682;2022-08-03T12:24:42;101229.63;;;35.67;31.89
64095;BME280;50353;51.420;5.682;2022-08-03T12:27:07;101231.81;;;35.48;32.49
64095;BME280;50353;51.420;5.682;2022-08-03T12:29:33;101228.06;;;35.37;33.72
64095;BME280;50353;51.420;5.682;2022-08-03T12:31:58;101225.84;;;35.06;32.79
64095;BME280;50353;51.420;5.682;2022-08-03T12:34:43;101224.97;;;35.51;38.47
64095;BME280;50353;51.420;5.682;2022-08-03T12:37:09;101227.84;;;35.95;38.01
64095;BME280;50353;51.420;5.682;2022-08-03T12:39:34;101228.72;;;36.18;34.00
64095;BME280;50353;51.420;5.682;2022-08-03T12:41:59;101235.47;;;35.88;32.89
64095;BME280;50353;51.420;5.682;2022-08-03T12:44:29;101230.13;;;36.20;34.63
64095;BME280;50353;51.420;5.682;2022-08-03T12:46:59;101225.63;;;35.92;33.73
64095;BME280;50353;51.420;5.682;2022-08-03T12:49:24;101219.44;;;36.24;37.51
64095;BME280;50353;51.420;5.682;2022-08-03T12:54:23;101221.72;;;35.54;36.14
64095;BME280;50353;51.420;5.682;2022-08-03T12:57:12;101222.34;;;34.52;34.69
64095;BME280;50353;51.420;5.682;2022-08-03T12:59:40;101207.66;;;35.33;35.63
64095;BME280;50353;51.420;5.682;2022-08-03T13:02:19;101219.72;;;35.66;33.86
64095;BME280;50353;51.420;5.682;2022-08-03T13:04:46;101214.38;;;36.16;34.15
64095;BME280;50353;51.420;5.682;2022-08-03T13:07:12;101215.84;;;36.01;34.48
64095;BME280;50353;51.420;5.682;2022-08-03T13:09:48;101215.38;;;35.19;33.11
64095;BME280;50353;51.420;5.682;2022-08-03T13:12:24;101214.16;;;35.44;32.86
64095;BME280;50353;51.420;5.682;2022-08-03T13:14:52;101205.75;;;34.88;35.69
64095;BME280;50353;51.420;5.682;2022-08-03T13:17:17;101214.31;;;34.92;33.59
64095;BME280;50353;51.420;5.682;2022-08-03T13:19:44;101211.13;;;34.83;34.03
64095;BME280;50353;51.420;5.682;2022-08-03T13:24:40;101205.00;;;35.39;34.96
64095;BME280;50353;51.420;5.682;2022-08-03T13:27:07;101213.63;;;35.30;38.92
64095;BME280;50353;51.420;5.682;2022-08-03T13:29:33;101210.53;;;35.10;34.23
64095;BME280;50353;51.420;5.682;2022-08-03T13:31:59;101209.59;;;34.34;34.69
64095;BME280;50353;51.420;5.682;2022-08-03T13:34:24;101200.00;;;34.61;34.28
64095;BME280;50353;51.420;5.682;2022-08-03T13:36:50;101195.03;;;34.46;34.11
64095;BME280;50353;51.420;5.682;2022-08-03T13:39:16;101199.13;;;35.18;38.62